La Posta (441, 1215, 629) Station Data

Red Flag Warning: No
Fire Weather Zone: 258
SDGE Region: Mountain Empire
Lat/Lon: 32.714/-116.404

Observations

Time Wind Speed/Gust Temp(F) RH Fuel Moist Fuel Temp(F) Dewpt(F) Tmax(F) Tmin(F) Accum Precip 10-min Precip SL Press(mb)
2/27 11:40pm 220 20 G 38 42° 99% - - 42° 45° 40.5° - - -
2/27 11:20pm 197 14 G 27 43° 99% - - 42° 45° 40.5° - - -
2/27 11:10pm 197 12 G 18 43° 99% - - 42° 45° 40.5° - - -
2/27 11:00pm 195 12 G 19 43° 99% - - 42° 45° 40.5° - - -
2/27 10:50pm 193 16 G 25 43° 99% - - 42° 45° 40.5° - - -
2/27 10:40pm 194 16 G 27 43° 99% - - 42° 45° 40.5° - - -
2/27 10:30pm 193 19 G 29 43° 99% - - 42° 45° 40.5° - - -
2/27 10:20pm 190 17 G 27 43° 99% - - 42° 45° 40.5° - - -
2/27 10:10pm 193 16 G 24 43° 99% - - 42° 45° 40.5° - - -
2/27 10:00pm 199 13 G 21 43° 99% - - 42° 45° 40.5° - - -
2/27 9:50pm 191 14 G 22 43° 99% - - 42° 45° 40.5° - - -
2/27 9:40pm 197 14 G 22 43° 99% - - 42° 45° 40.5° - - -
2/27 9:30pm 192 12 G 25 43° 99% - - 42° 45° 40.5° - - -
2/27 9:20pm 197 11 G 18 43° 99% - - 42° 45° 40.5° - - -
2/27 9:10pm 201 14 G 23 43° 99% - - 42° 45° 40.5° - - -
2/27 9:00pm 198 13 G 22 43° 99% - - 42° 45° 40.5° - - -
2/27 8:50pm 201 12 G 19 42° 99% - - 42° 45° 40.5° - - -
2/27 8:40pm 201 13 G 20 42° 99% - - 42° 45° 40.5° - - -
2/27 8:30pm 200 13 G 18 42° 99% - - 42° 45° 40.5° - - -
2/27 8:20pm 197 12 G 20 42° 99% - - 42° 45° 40.5° - - -
2/27 8:10pm 196 13 G 19 42° 99% - - 42° 45° 40.5° - - -
2/27 8:00pm 196 13 G 23 42° 99% - - 42° 45° 40.5° - - -
2/27 7:50pm 195 12 G 20 42° 99% - - 42° 45° 40.5° - - -
2/27 7:40pm 199 14 G 24 42° 99% - - 42° 45° 40.5° - - -
2/27 7:30pm 196 13 G 20 42° 99% - - 42° 45° 40.5° - - -
2/27 7:20pm 195 13 G 18 42° 99% - - 42° 45° 40.5° - - -
2/27 7:10pm 198 12 G 18 42° 99% - - 41° 45° 40.5° - - -
2/27 7:00pm 193 11 G 17 42° 99% - - 41° 45° 40.5° - - -
2/27 6:50pm 195 11 G 17 42° 99% - - 41° 45° 40.5° - - -
2/27 6:40pm 192 10 G 15 42° 99% - - 41° 45° 40.5° - - -
2/27 6:30pm 193 9 G 16 42° 99% - - 41° 45° 40.5° - - -
2/27 6:20pm 192 10 G 16 42° 99% - - 41° 45° 40.5° - - -
2/27 6:10pm 196 11 G 17 42° 99% - - 42° 45° 40.5° - - -
2/27 6:00pm 192 11 G 19 42° 99% - - 42° 45° 40.5° - - -
2/27 5:50pm 190 13 G 20 42° 99% - - 42° 45° 40.5° - - -
2/27 5:40pm 199 13 G 22 42° 99% - - 42° 45° 40.5° - - -
2/27 5:30pm 195 14 G 22 42° 99% - - 42° 45° 40.5° - - -
2/27 5:20pm 208 13 G 21 43° 98% - - 42° 45° 40.5° - - -
2/27 5:10pm 197 14 G 21 43° 98% - - 42° 45° 40.5° - - -
2/27 5:00pm 200 14 G 21 43° 98% - - 42° 45° 40.5° - - -
2/27 4:50pm 204 12 G 17 43° 98% - - 42° 45° 40.5° - - -
2/27 4:40pm 210 14 G 20 43° 98% - - 42° 45° 40.5° - - -
2/27 4:30pm 220 14 G 21 43° 98% - - 42° 45° 40.5° - - -
2/27 4:20pm 216 14 G 26 43° 98% - - 42° 45° 40.5° - - -
2/27 4:10pm 211 14 G 25 43° 98% - - 42° 45° 40.5° - - -
2/27 4:00pm 222 12 G 23 43° 98% - - 42° 45° 40.5° - - -
2/27 3:50pm 221 12 G 19 42° 98% - - 42° 45° 40.5° - - -
2/27 3:40pm 222 13 G 21 43° 98% - - 42° 45° 40.5° - - -
2/27 3:30pm 222 14 G 21 42° 98% - - 42° 45° 40.5° - - -
2/27 3:20pm 222 13 G 19 43° 98% - - 42° 45° 40.5° - - -
2/27 3:10pm 223 16 G 26 43° 98% - - 42° 45° 40.5° - - -
2/27 3:00pm 230 14 G 23 43° 98% - - 43° 45° 40.5° - - -
2/27 2:50pm 219 13 G 21 43° 98% - - 43° 45° 40.5° - - -
2/27 2:40pm 213 13 G 20 43° 98% - - 43° 45° 40.5° - - -
2/27 2:30pm 213 14 G 21 43° 98% - - 43° 45° 40.5° - - -
2/27 2:20pm 206 13 G 20 43° 98% - - 43° 45° 40.5° - - -
2/27 2:10pm 210 16 G 27 44° 98% - - 43° 45° 40.5° - - -
2/27 2:00pm 209 16 G 31 44° 98% - - 43° 45° 40.5° - - -
2/27 1:50pm 205 18 G 28 44° 98% - - 44° 45° 40.5° - - -
2/27 1:40pm 208 18 G 25 44° 98% - - 44° 45° 40.5° - - -
2/27 1:30pm 204 18 G 27 44° 98% - - 44° 45° 40.5° - - -
2/27 1:20pm 210 17 G 25 44° 98% - - 44° 45° 40.5° - - -
2/27 1:10pm 215 18 G 28 44° 98% - - 44° 45° 40.5° - - -
2/27 1:00pm 218 18 G 27 44° 98% - - 44° 45° 40.5° - - -
2/27 12:50pm 217 17 G 24 44° 98% - - 44° 45° 40.5° - - -
2/27 12:40pm 210 15 G 25 45° 98% - - 44° 45° 40.5° - - -
2/27 12:30pm 206 14 G 24 45° 98% - - 44° 45° 40.5° - - -
2/27 12:20pm 205 14 G 22 45° 98% - - 44° 45° 40.5° - - -
2/27 12:10pm 200 16 G 23 44° 98% - - 44° 45° 40.5° - - -
2/27 12:00pm 200 14 G 22 44° 98% - - 44° 45° 40.5° - - -
2/27 11:50am 203 13 G 22 45° 98% - - 44° 45° 40.5° - - -
2/27 11:40am 206 16 G 26 45° 98% - - 44° 45° 40.5° - - -
2/27 11:30am 206 15 G 27 45° 98% - - 44° 45° 40.5° - - -
2/27 11:20am 200 18 G 27 45° 98% - - 44° 45° 40.5° - - -
2/27 11:10am 192 19 G 32 45° 98% - - 44° 45° 40.5° - - -
2/27 11:00am 197 15 G 24 45° 98% - - 44° 45° 40.5° - - -
2/27 10:50am 204 14 G 23 45° 98% - - 44° 45° 40.5° - - -
2/27 10:40am 199 15 G 24 45° 98% - - 44° 45° 40.5° - - -
2/27 10:30am 193 17 G 26 45° 98% - - 44° 45° 40.5° - - -
2/27 10:20am 195 15 G 26 45° 98% - - 44° 45° 40.5° - - -
2/27 10:10am 193 15 G 24 45° 98% - - 44° 44.9° 40.5° - - -
2/27 10:00am 187 18 G 27 45° 98% - - 44° 44.8° 40.5° - - -
2/27 9:50am 188 13 G 21 45° 98% - - 44° 44.8° 40.5° - - -
2/27 9:40am 177 14 G 22 44° 98% - - 44° 44.8° 40.5° - - -
2/27 9:30am 176 15 G 22 44° 98% - - 44° 44.8° 40.5° - - -
2/27 9:20am 184 18 G 26 44° 98% - - 44° 44.8° 40.5° - - -
2/27 9:10am 199 16 G 24 44° 98% - - 44° 44.8° 40.5° - - -
2/27 9:00am 211 12 G 20 44° 98% - - 44° 44.8° 40.5° - - -
2/27 8:50am 208 11 G 18 44° 98% - - 44° 44.8° 40.5° - - -
2/27 8:40am 202 10 G 15 44° 98% - - 44° 44.8° 40.5° - - -
2/27 8:30am 210 7 G 12 44° 98% - - 44° 44.6° 40.5° - - -
2/27 8:20am 220 8 G 12 44° 98% - - 44° 44.6° 40.5° - - -
2/27 8:10am 235 11 G 17 44° 98% - - 44° 44.6° 40.5° - - -
2/27 8:00am 215 10 G 14 44° 98% - - 44° 44.6° 40.5° - - -
2/27 7:50am 223 9 G 13 44° 98% - - 44° 44.5° 40.5° - - -
2/27 7:40am 235 9 G 16 44° 98% - - 44° 44.5° 40.5° - - -
2/27 7:30am 224 11 G 18 44° 98% - - 44° 44.5° 40.5° - - -
2/27 7:20am 220 10 G 17 44° 98% - - 44° 44.5° 40.5° - - -
2/27 7:10am 222 10 G 15 44° 98% - - 44° 44.4° 40.5° - - -
2/27 7:00am 212 11 G 16 44° 98% - - 44° 44.3° 40.5° - - -
2/27 6:50am 203 11 G 19 44° 98% - - 44° 44.3° 40.5° - - -
2/27 6:40am 201 13 G 21 44° 98% - - 44° 44.3° 40.5° - - -
2/27 6:30am 205 13 G 20 44° 98% - - 44° 44.3° 40.5° - - -
2/27 6:20am 203 12 G 19 44° 98% - - 44° 44.3° 40.5° - - -
2/27 6:10am 203 13 G 21 44° 98% - - 44° 44.2° 40.5° - - -
2/27 6:00am 204 12 G 19 44° 98% - - 43° 44.2° 40.5° - - -
2/27 5:50am 202 9 G 14 44° 98% - - 43° 44.1° 40.5° - - -
2/27 5:40am 198 11 G 18 44° 98% - - 43° 44.1° 40.5° - - -
2/27 5:30am 209 12 G 19 44° 98% - - 43° 44.1° 40.5° - - -
2/27 5:20am 207 13 G 20 44° 98% - - 43° 44.1° 40.5° - - -
2/27 5:10am 206 14 G 20 44° 98% - - 43° 44.1° 40.5° - - -
2/27 5:00am 206 12 G 18 44° 98% - - 43° 44° 40.5° - - -
2/27 4:50am 206 10 G 18 44° 98% - - 43° 43.8° 40.5° - - -
2/27 4:40am 217 12 G 19 44° 98% - - 43° 43.8° 40.5° - - -
2/27 4:30am 220 10 G 18 43° 98% - - 43° 43.7° 40.5° - - -
2/27 4:20am 221 11 G 16 43° 98% - - 43° 43.5° 40.5° - - -
2/27 4:10am 222 9 G 14 43° 98% - - 43° 43.2° 40.5° - - -
2/27 4:00am 226 9 G 15 43° 98% - - 43° 43.2° 40.5° - - -
2/27 3:50am 230 11 G 17 43° 98% - - 42° 43° 40.5° - - -
2/27 3:40am 233 10 G 15 43° 98% - - 42° 43° 40.5° - - -
2/27 3:30am 233 10 G 17 43° 98% - - 42° 42.8° 40.5° - - -
2/27 3:20am 235 10 G 14 43° 98% - - 42° 42.8° 40.5° - - -
2/27 3:10am 237 10 G 17 43° 98% - - 42° 42.7° 40.5° - - -
2/27 3:00am 239 10 G 16 43° 98% - - 42° 42.7° 40.5° - - -
2/27 2:50am 242 11 G 15 42° 98% - - 42° 42.6° 40.5° - - -
2/27 2:40am 238 11 G 17 42° 98% - - 42° 42.6° 40.5° - - -
2/27 2:30am 232 11 G 17 42° 98% - - 42° 42.4° 40.5° - - -
2/27 2:20am 231 12 G 19 42° 98% - - 42° 42.3° 40.5° - - -
2/27 2:10am 229 12 G 19 42° 98% - - 42° 42.3° 40.5° - - -
2/27 2:00am 235 13 G 20 42° 98% - - 42° 42.3° 40.5° - - -
2/27 1:50am 237 13 G 21 42° 98% - - 42° 42.2° 40.5° - - -
2/27 1:40am 239 14 G 21 42° 98% - - 42° 42.1° 40.5° - - -
2/27 1:30am 238 14 G 20 42° 98% - - 41° 42.1° 40.5° - - -
2/27 1:20am 239 14 G 23 42° 98% - - 41° 42.1° 40.5° - - -
2/27 1:10am 240 14 G 22 42° 98% - - 41° 41.9° 40.5° - - -
2/27 1:00am 245 12 G 18 42° 98% - - 41° 41.9° 40.5° - - -
2/27 12:50am 245 13 G 20 42° 98% - - 41° 41.9° 40.5° - - -
2/27 12:40am 250 13 G 20 42° 98% - - 41° 41.8° 40.5° - - -
2/27 12:30am 248 15 G 21 42° 98% - - 41° 41.8° 40.5° - - -
2/27 12:20am 250 13 G 22 41° 98% - - 41° 41.6° 40.5° - - -
2/27 12:10am 249 13 G 21 41° 98% - - 40° 41.3° 40.5° - - -
2/27 12:00am 257 12 G 18 41° 99% - - 40° 41.3° 35° - - -
2/26 11:50pm 260 13 G 19 40° 99% - - 40° 41.3° 35° - - -
2/26 11:40pm 255 13 G 21 40° 99% - - 40° 41.3° 35° - - -
2/26 11:30pm 260 13 G 21 40° 99% - - 40° 41.3° 35° - - -
2/26 11:20pm 257 15 G 20 40° 99% - - 39° 41.3° 35° - - -
2/26 11:10pm 256 13 G 21 40° 99% - - 39° 41.3° 35° - - -
2/26 11:00pm 259 15 G 21 40° 99% - - 39° 41.3° 35° - - -
2/26 10:50pm 263 15 G 21 39° 99% - - 39° 41.3° 35° - - -
2/26 10:40pm 266 14 G 20 39° 99% - - 38° 41.3° 35° - - -
2/26 10:30pm 269 14 G 20 38° 99% - - 38° 41.3° 35° - - -
2/26 10:20pm 271 15 G 22 38° 98% - - 37° 41.3° 35° - - -
2/26 10:10pm 271 15 G 24 37° 98% - - 37° 41.3° 35° - - -
2/26 10:00pm 269 14 G 20 37° 98% - - 37° 41.3° 35° - - -
2/26 9:50pm 267 14 G 20 37° 98% - - 36° 41.3° 35° - - -
2/26 9:40pm 266 14 G 23 37° 97% - - 36° 41.3° 35° - - -
2/26 9:30pm 265 14 G 22 37° 97% - - 37° 41.3° 35° - - -
2/26 9:20pm 266 17 G 23 37° 97% - - 37° 41.3° 35° - - -
2/26 9:10pm 264 16 G 26 38° 97% - - 37° 41.3° 35° - - -
2/26 9:00pm 260 16 G 26 38° 97% - - 37° 41.3° 35° - - -
2/26 8:50pm 257 18 G 27 38° 96% - - 37° 41.3° 35° - - -
2/26 8:40pm 256 19 G 26 38° 97% - - 37° 41.3° 35° - - -
2/26 8:30pm 256 19 G 30 38° 96% - - 37° 41.3° 35° - - -
2/26 8:20pm 253 18 G 30 38° 97% - - 37° 41.3° 35° - - -
2/26 8:10pm 256 16 G 25 38° 98% - - 37° 41.3° 35° - - -
2/26 8:00pm 257 16 G 25 38° 98% - - 37° 41.3° 35° - - -
2/26 7:50pm 257 14 G 26 38° 98% - - 37° 41.3° 35° - - -
2/26 7:40pm 257 13 G 21 38° 98% - - 37° 41.3° 35° - - -
2/26 7:30pm 262 11 G 18 38° 97% - - 37° 41.3° 35° - - -
2/26 7:20pm 271 11 G 18 38° 97% - - 37° 41.3° 35° - - -
2/26 7:10pm 270 11 G 19 38° 97% - - 37° 41.3° 35° - - -
2/26 7:00pm 267 11 G 19 38° 97% - - 37° 41.3° 35° - - -
2/26 6:50pm 264 13 G 19 38° 97% - - 37° 41.3° 35° - - -
2/26 6:40pm 259 12 G 22 38° 96% - - 37° 41.3° 35° - - -
2/26 6:30pm 256 13 G 20 38° 94% - - 36° 41.3° 35° - - -
2/26 6:20pm 249 15 G 22 38° 93% - - 36° 41.3° 35° - - -
2/26 6:10pm 245 16 G 22 38° 94% - - 36° 41.3° 35° - - -
2/26 6:00pm 246 16 G 24 38° 93% - - 36° 41.3° 35° - - -
2/26 5:50pm 240 16 G 23 38° 93% - - 37° 41.3° 35° - - -
2/26 5:40pm 238 16 G 26 39° 94% - - 37° 41.3° 35° - - -
2/26 5:30pm 239 15 G 23 39° 96% - - 38° 41.3° 35° - - -
2/26 5:20pm 241 14 G 22 39° 96% - - 38° 41.3° 35° - - -
2/26 5:10pm 242 15 G 25 39° 95% - - 38° 41.3° 35° - - -
2/26 5:00pm 241 15 G 23 39° 96% - - 38° 41.3° 35° - - -